createdAt,value
2019-06-01T00:00:10.394Z,62.10
2019-06-01T00:02:25.742Z,62.50
2019-06-01T00:04:53.808Z,63.10
2019-06-01T00:07:21.470Z,62.80
2019-06-01T00:09:49.651Z,63.20
2019-06-01T00:12:17.453Z,62.80
2019-06-01T00:14:45.999Z,62.90
2019-06-01T00:17:13.677Z,63.20
2019-06-01T00:19:41.982Z,63.20
2019-06-01T00:22:09.658Z,63.10
2019-06-01T00:24:37.182Z,62.80
2019-06-01T00:27:04.735Z,63.20
2019-06-01T00:29:32.387Z,63.40
2019-06-01T00:31:59.984Z,63.30
2019-06-01T00:34:27.617Z,63.40
2019-06-01T00:36:55.159Z,63.20
2019-06-01T00:39:23.161Z,63.90
2019-06-01T00:41:52.402Z,63.60
2019-06-01T00:44:20.449Z,63.60
2019-06-01T00:46:48.715Z,64.40
2019-06-01T00:49:16.634Z,63.90
2019-06-01T00:51:45.030Z,64.70
2019-06-01T00:54:12.627Z,64.10
2019-06-01T00:56:40.202Z,64.60
2019-06-01T00:59:07.734Z,64.90
2019-06-01T01:01:35.617Z,64.50
2019-06-01T01:04:03.017Z,64.80
2019-06-01T01:06:30.948Z,64.40
2019-06-01T01:08:58.777Z,64.40
2019-06-01T01:11:26.555Z,64.90
2019-06-01T01:13:55.308Z,65.00
2019-06-01T01:16:22.983Z,65.40
2019-06-01T01:18:51.908Z,65.00
2019-06-01T01:21:19.836Z,65.70
2019-06-01T01:23:48.228Z,65.70
2019-06-01T01:26:15.925Z,65.30
2019-06-01T01:28:43.774Z,65.70
2019-06-01T01:31:14.046Z,65.60
2019-06-01T01:33:41.230Z,65.00
2019-06-01T01:36:08.707Z,65.30
2019-06-01T01:38:36.260Z,65.20
2019-06-01T01:41:15.954Z,65.30
2019-06-01T01:43:43.382Z,65.80
2019-06-01T01:46:10.922Z,65.80
2019-06-01T01:48:38.721Z,66.20
2019-06-01T01:51:06.567Z,65.90
2019-06-01T01:53:34.584Z,65.50
2019-06-01T01:56:02.190Z,65.70
2019-06-01T01:58:29.673Z,65.90
2019-06-01T02:00:58.531Z,66.10
2019-06-01T02:03:27.147Z,65.90
2019-06-01T02:05:54.996Z,65.70
2019-06-01T02:08:22.554Z,65.80
2019-06-01T02:10:51.221Z,66.50
2019-06-01T02:13:18.930Z,66.30
2019-06-01T02:15:46.627Z,66.50
2019-06-01T02:18:14.035Z,66.50
2019-06-01T02:20:41.678Z,66.10
2019-06-01T02:23:09.539Z,66.40
2019-06-01T02:25:37.103Z,66.60
2019-06-01T02:28:05.685Z,66.80
2019-06-01T02:30:33.755Z,66.80
2019-06-01T02:33:02.436Z,66.40
2019-06-01T02:35:30.812Z,66.90
2019-06-01T02:37:58.652Z,67.30
2019-06-01T02:40:27.070Z,67.30
2019-06-01T02:42:55.037Z,68.30
2019-06-01T02:45:23.076Z,67.70
2019-06-01T02:47:50.950Z,67.50
2019-06-01T02:50:18.675Z,68.20
2019-06-01T02:52:46.221Z,67.80
2019-06-01T02:55:15.776Z,68.10
2019-06-01T02:57:43.297Z,68.30
2019-06-01T03:00:11.379Z,68.70
2019-06-01T03:02:39.125Z,69.30
2019-06-01T03:05:07.694Z,70.10
2019-06-01T03:07:38.071Z,70.00
2019-06-01T03:10:07.053Z,70.10
2019-06-01T03:12:42.008Z,70.80
2019-06-01T03:15:09.652Z,71.00
2019-06-01T03:17:41.621Z,71.20
2019-06-01T03:20:09.223Z,71.70
2019-06-01T03:22:38.283Z,71.60
2019-06-01T03:25:06.078Z,71.60
2019-06-01T03:27:37.322Z,71.20
2019-06-01T03:30:06.782Z,71.00
2019-06-01T03:32:37.329Z,71.30
2019-06-01T03:35:05.084Z,70.40
2019-06-01T03:37:32.891Z,70.50
2019-06-01T03:40:01.256Z,70.70
2019-06-01T03:42:29.224Z,70.90
2019-06-01T03:44:56.945Z,71.70
2019-06-01T03:47:24.788Z,70.80
2019-06-01T03:49:54.129Z,70.60
2019-06-01T03:52:21.653Z,71.00
2019-06-01T03:54:49.235Z,71.30
2019-06-01T03:57:16.998Z,71.10
2019-06-01T03:59:44.927Z,71.40
2019-06-01T04:02:12.803Z,71.80
2019-06-01T04:04:40.353Z,72.50
2019-06-01T04:07:08.289Z,72.70
2019-06-01T04:09:35.949Z,73.20
2019-06-01T04:12:03.561Z,72.50
2019-06-01T04:14:31.179Z,73.30
2019-06-01T04:16:58.686Z,73.20
2019-06-01T04:19:26.110Z,73.50
2019-06-01T04:21:53.646Z,73.50
2019-06-01T04:24:22.231Z,73.50
2019-06-01T04:26:50.378Z,73.90
2019-06-01T04:29:18.383Z,74.00
2019-06-01T04:31:45.851Z,74.00
2019-06-01T04:34:13.381Z,74.80
2019-06-01T04:36:40.928Z,74.00
2019-06-01T04:39:09.462Z,74.40
2019-06-01T04:41:37.452Z,74.40
2019-06-01T04:44:05.920Z,74.10
2019-06-01T04:46:34.259Z,73.90
2019-06-01T04:49:02.377Z,74.10
2019-06-01T04:51:29.968Z,75.10
2019-06-01T04:53:57.455Z,76.20
2019-06-01T04:56:25.579Z,75.20
2019-06-01T04:58:53.521Z,75.10
2019-06-01T05:01:21.675Z,75.50
2019-06-01T05:03:49.536Z,76.40
2019-06-01T05:06:16.990Z,75.80
2019-06-01T05:08:44.977Z,76.00
2019-06-01T05:11:13.504Z,75.40
2019-06-01T05:13:41.512Z,76.30
2019-06-01T05:16:10.056Z,77.10
2019-06-01T05:18:38.064Z,78.60
2019-06-01T05:21:06.468Z,78.80
2019-06-01T05:23:34.017Z,78.60
2019-06-01T05:26:01.534Z,80.90
2019-06-01T05:28:29.813Z,81.60
2019-06-01T05:30:57.783Z,81.50
2019-06-01T05:33:36.963Z,81.00
2019-06-01T05:35:54.992Z,80.80
2019-06-01T05:38:22.814Z,80.80
2019-06-01T05:40:50.347Z,81.90
2019-06-01T05:43:20.899Z,81.50
2019-06-01T05:45:48.760Z,82.20
2019-06-01T05:48:23.622Z,81.70
2019-06-01T05:50:45.632Z,81.90
2019-06-01T05:53:13.143Z,81.80
2019-06-01T05:55:42.034Z,82.30
2019-06-01T05:58:10.918Z,83.00
2019-06-01T06:00:40.688Z,83.30
2019-06-01T06:03:08.309Z,82.10
2019-06-01T06:05:35.798Z,82.20
2019-06-01T06:08:03.665Z,81.00
2019-06-01T06:10:31.569Z,79.20
2019-06-01T06:12:59.706Z,80.00
2019-06-01T06:15:27.229Z,81.20
2019-06-01T06:17:54.694Z,81.50
2019-06-01T06:20:22.275Z,81.50
2019-06-01T06:22:49.827Z,81.70
2019-06-01T06:25:17.327Z,81.20
2019-06-01T06:27:44.981Z,82.10
2019-06-01T06:30:13.063Z,80.70
2019-06-01T06:32:40.851Z,79.40
2019-06-01T06:35:08.542Z,78.40
2019-06-01T06:37:36.364Z,79.60
2019-06-01T06:40:04.405Z,79.50
2019-06-01T06:42:32.002Z,80.30
2019-06-01T06:44:59.642Z,81.30
2019-06-01T06:47:27.477Z,81.00
2019-06-01T06:49:55.040Z,81.20
2019-06-01T06:52:23.587Z,82.30
2019-06-01T06:54:51.611Z,81.10
2019-06-01T06:57:20.148Z,81.20
2019-06-01T06:59:48.045Z,80.30
2019-06-01T07:02:16.740Z,81.40
2019-06-01T07:04:44.285Z,81.30
2019-06-01T07:07:12.059Z,81.70
2019-06-01T07:09:39.731Z,80.90
2019-06-01T07:12:07.469Z,81.10
2019-06-01T07:14:36.261Z,83.60
2019-06-01T07:17:03.834Z,80.10
2019-06-01T07:19:31.922Z,79.10
2019-06-01T07:21:59.664Z,79.60
2019-06-01T07:24:28.152Z,78.70
2019-06-01T07:26:55.744Z,79.20
2019-06-01T07:29:24.217Z,77.80
2019-06-01T07:31:51.820Z,78.30
2019-06-01T07:34:32.143Z,78.20
2019-06-01T07:36:49.546Z,76.40
2019-06-01T07:39:17.152Z,82.30
2019-06-01T07:41:44.865Z,78.10
2019-06-01T07:44:12.521Z,78.30
2019-06-01T07:46:40.017Z,77.70
2019-06-01T07:49:07.710Z,75.80
2019-06-01T07:51:35.597Z,76.30
2019-06-01T07:54:03.187Z,76.40
2019-06-01T07:56:30.698Z,75.40
2019-06-01T07:58:58.209Z,76.30
2019-06-01T08:01:27.776Z,74.60
2019-06-01T08:03:55.399Z,77.40
2019-06-01T08:06:23.955Z,74.10
2019-06-01T08:08:52.430Z,72.00
2019-06-01T08:11:21.182Z,72.30
2019-06-01T08:13:49.471Z,71.90
2019-06-01T08:16:17.260Z,72.40
2019-06-01T08:18:44.827Z,71.90
2019-06-01T08:21:12.370Z,74.80
2019-06-01T08:23:40.119Z,74.60
2019-06-01T08:26:07.599Z,74.40
2019-06-01T08:28:35.056Z,73.90
2019-06-01T08:31:02.505Z,73.30
2019-06-01T08:33:33.152Z,77.50
2019-06-01T08:36:00.319Z,73.30
2019-06-01T08:38:29.487Z,74.60
2019-06-01T08:40:57.422Z,76.10
2019-06-01T08:43:25.499Z,72.20
2019-06-01T08:45:55.897Z,71.70
2019-06-01T08:48:23.768Z,71.90
2019-06-01T08:50:51.419Z,73.00
2019-06-01T08:53:19.219Z,75.00
2019-06-01T08:55:46.784Z,72.40
2019-06-01T08:58:14.307Z,71.70
2019-06-01T09:00:42.562Z,71.30
2019-06-01T09:03:10.301Z,73.50
2019-06-01T09:05:37.876Z,72.40
2019-06-01T09:08:05.453Z,73.20
2019-06-01T09:10:33.311Z,71.40
2019-06-01T09:13:00.933Z,69.20
2019-06-01T09:15:29.689Z,70.40
2019-06-01T09:17:57.326Z,68.80
2019-06-01T09:20:25.489Z,68.80
2019-06-01T09:22:53.217Z,67.80
2019-06-01T09:25:21.733Z,69.20
2019-06-01T09:27:49.962Z,69.40
2019-06-01T09:30:17.643Z,69.40
2019-06-01T09:32:46.007Z,70.20
2019-06-01T09:35:13.655Z,71.30
2019-06-01T09:37:41.139Z,68.10
2019-06-01T09:40:09.219Z,69.10
2019-06-01T09:42:37.602Z,70.10
2019-06-01T09:45:05.455Z,68.50
2019-06-01T09:47:33.305Z,68.30
2019-06-01T09:50:01.305Z,65.90
2019-06-01T09:52:29.221Z,65.50
2019-06-01T09:54:57.125Z,66.00
2019-06-01T09:57:24.898Z,69.40
2019-06-01T09:59:52.443Z,66.10
2019-06-01T10:02:19.930Z,60.60
2019-06-01T10:04:47.773Z,61.40
2019-06-01T10:07:15.613Z,62.20
2019-06-01T10:09:43.141Z,59.40
2019-06-01T10:12:11.674Z,59.00
2019-06-01T10:14:39.562Z,59.50
2019-06-01T10:17:07.175Z,58.30
2019-06-01T10:19:34.679Z,59.20
2019-06-01T10:22:02.535Z,59.70
2019-06-01T10:24:31.064Z,56.50
2019-06-01T10:26:58.951Z,55.70
2019-06-01T10:29:26.552Z,55.00
2019-06-01T10:31:54.392Z,58.40
2019-06-01T10:34:22.253Z,56.40
2019-06-01T10:36:50.099Z,56.10
2019-06-01T10:39:19.735Z,55.40
2019-06-01T10:41:47.127Z,55.60
2019-06-01T10:44:14.619Z,53.70
2019-06-01T10:46:42.243Z,56.20
2019-06-01T10:49:09.867Z,55.00
2019-06-01T10:51:38.257Z,57.10
2019-06-01T10:54:06.144Z,57.90
2019-06-01T10:56:34.360Z,53.30
2019-06-01T10:59:01.934Z,53.60
2019-06-01T11:01:32.443Z,54.60
2019-06-01T11:03:59.135Z,53.10
2019-06-01T11:06:36.725Z,55.80
2019-06-01T11:08:56.147Z,53.90
2019-06-01T11:11:24.245Z,54.90
2019-06-01T11:13:52.102Z,51.10
2019-06-01T11:16:19.482Z,52.70
2019-06-01T11:18:48.254Z,53.50
2019-06-01T11:21:16.018Z,53.50
2019-06-01T11:23:46.150Z,56.00
2019-06-01T11:26:12.929Z,54.40
2019-06-01T11:28:42.245Z,53.60
2019-06-01T11:31:09.741Z,51.10
2019-06-01T11:33:38.194Z,51.60
2019-06-01T11:36:05.742Z,51.60
2019-06-01T11:38:34.641Z,52.60
2019-06-01T11:41:02.315Z,52.00
2019-06-01T11:43:30.207Z,54.00
2019-06-01T11:45:57.974Z,52.60
2019-06-01T11:48:25.749Z,50.10
2019-06-01T11:50:53.510Z,48.50
2019-06-01T11:53:21.058Z,47.60
2019-06-01T11:55:49.025Z,50.00
2019-06-01T11:58:16.527Z,48.20
2019-06-01T12:00:45.849Z,50.70
2019-06-01T12:03:13.486Z,50.90
2019-06-01T12:05:42.115Z,50.70
2019-06-01T12:08:10.129Z,48.40
2019-06-01T12:10:38.974Z,49.90
2019-06-01T12:13:06.952Z,50.80
2019-06-01T12:15:34.462Z,50.00
2019-06-01T12:18:02.023Z,50.40
2019-06-01T12:20:29.984Z,48.50
2019-06-01T12:22:57.433Z,51.60
2019-06-01T12:25:25.304Z,52.10
2019-06-01T12:27:53.154Z,47.70
2019-06-01T12:30:21.112Z,48.20
2019-06-01T12:32:48.975Z,48.60
2019-06-01T12:35:16.674Z,48.10
2019-06-01T12:37:59.577Z,45.70
2019-06-01T12:40:14.687Z,47.80
2019-06-01T12:42:44.087Z,49.90
2019-06-01T12:45:17.445Z,46.00
2019-06-01T12:47:49.604Z,48.60
2019-06-01T12:50:15.389Z,47.20
2019-06-01T12:52:44.127Z,46.70
2019-06-01T12:55:12.694Z,47.10
2019-06-01T12:57:40.763Z,48.80
2019-06-01T13:00:09.900Z,48.90
2019-06-01T13:02:37.473Z,48.60
2019-06-01T13:05:05.405Z,49.30
2019-06-01T13:07:33.323Z,47.40
2019-06-01T13:10:00.847Z,45.30
2019-06-01T13:12:28.693Z,46.70
2019-06-01T13:14:56.539Z,46.50
2019-06-01T13:17:24.442Z,49.90
2019-06-01T13:19:51.960Z,48.30
2019-06-01T13:22:19.742Z,46.60
2019-06-01T13:24:47.912Z,45.50
2019-06-01T13:27:15.627Z,46.10
2019-06-01T13:29:43.759Z,45.40
2019-06-01T13:32:11.694Z,46.10
2019-06-01T13:34:39.865Z,46.40
2019-06-01T13:37:07.401Z,46.90
2019-06-01T13:39:35.299Z,46.00
2019-06-01T13:42:02.816Z,44.20
2019-06-01T13:44:30.262Z,46.10
2019-06-01T13:46:57.855Z,46.50
2019-06-01T13:49:25.357Z,46.90
2019-06-01T13:51:52.914Z,45.50
2019-06-01T13:54:20.377Z,46.40
2019-06-01T13:56:48.843Z,44.10
2019-06-01T13:59:16.429Z,44.70
2019-06-01T14:01:45.083Z,46.50
2019-06-01T14:04:12.706Z,44.20
2019-06-01T14:06:40.180Z,45.60
2019-06-01T14:09:07.746Z,43.90
2019-06-01T14:11:35.333Z,46.70
2019-06-01T14:14:02.969Z,45.80
2019-06-01T14:16:30.469Z,45.40
2019-06-01T14:18:58.026Z,46.00
2019-06-01T14:21:25.791Z,44.30
2019-06-01T14:23:54.024Z,45.50
2019-06-01T14:26:22.192Z,45.70
2019-06-01T14:28:50.174Z,44.50
2019-06-01T14:31:17.731Z,44.20
2019-06-01T14:33:46.496Z,45.80
2019-06-01T14:36:14.265Z,45.30
2019-06-01T14:38:47.052Z,45.30
2019-06-01T14:41:11.319Z,47.20
2019-06-01T14:43:39.204Z,47.10
2019-06-01T14:46:06.782Z,44.90
2019-06-01T14:48:34.597Z,45.90
2019-06-01T14:51:02.248Z,46.50
2019-06-01T14:53:30.384Z,43.90
2019-06-01T14:55:58.327Z,44.30
2019-06-01T14:58:25.869Z,45.90
2019-06-01T15:00:54.559Z,47.10
2019-06-01T15:03:22.505Z,45.70
2019-06-01T15:05:50.300Z,46.20
2019-06-01T15:08:18.343Z,44.80
2019-06-01T15:10:45.888Z,43.60
2019-06-01T15:13:13.696Z,44.80
2019-06-01T15:15:41.110Z,44.40
2019-06-01T15:18:08.626Z,45.90
2019-06-01T15:20:36.108Z,45.40
2019-06-01T15:23:03.762Z,43.90
2019-06-01T15:25:32.011Z,45.00
2019-06-01T15:27:59.519Z,45.20
2019-06-01T15:30:27.144Z,44.00
2019-06-01T15:32:56.105Z,44.60
2019-06-01T15:35:23.826Z,45.30
2019-06-01T15:37:56.754Z,44.50
2019-06-01T15:40:21.198Z,45.10
2019-06-01T15:42:49.220Z,43.50
2019-06-01T15:45:17.086Z,43.90
2019-06-01T15:47:44.980Z,44.10
2019-06-01T15:50:14.899Z,43.60
2019-06-01T15:52:42.430Z,44.70
2019-06-01T15:55:10.208Z,44.40
2019-06-01T15:57:37.763Z,46.60
2019-06-01T16:00:06.330Z,45.30
2019-06-01T16:02:34.250Z,43.40
2019-06-01T16:05:01.798Z,43.90
2019-06-01T16:07:29.334Z,45.20
2019-06-01T16:09:57.437Z,44.70
2019-06-01T16:12:24.990Z,44.70
2019-06-01T16:14:53.376Z,43.10
2019-06-01T16:17:21.067Z,43.30
2019-06-01T16:19:48.710Z,42.60
2019-06-01T16:22:16.215Z,43.50
2019-06-01T16:24:43.773Z,43.20
2019-06-01T16:27:11.149Z,42.60
2019-06-01T16:29:38.665Z,42.20
2019-06-01T16:32:06.111Z,41.50
2019-06-01T16:34:33.844Z,42.70
2019-06-01T16:37:01.389Z,42.30
2019-06-01T16:39:28.977Z,43.00
2019-06-01T16:41:57.685Z,43.60
2019-06-01T16:44:25.530Z,42.80
2019-06-01T16:46:53.206Z,43.40
2019-06-01T16:49:20.643Z,42.40
2019-06-01T16:51:56.596Z,43.60
2019-06-01T16:54:24.864Z,43.80
2019-06-01T16:56:53.094Z,43.70
2019-06-01T16:59:20.762Z,42.60
2019-06-01T17:01:48.753Z,42.80
2019-06-01T17:04:16.347Z,42.60
2019-06-01T17:06:44.394Z,42.80
2019-06-01T17:09:12.477Z,41.60
2019-06-01T17:11:39.975Z,41.10
2019-06-01T17:14:07.639Z,42.10
2019-06-01T17:16:35.199Z,40.70
2019-06-01T17:19:03.087Z,41.80
2019-06-01T17:21:30.782Z,42.50
2019-06-01T17:23:59.445Z,40.50
2019-06-01T17:26:27.199Z,40.70
2019-06-01T17:28:55.866Z,41.60
2019-06-01T17:31:23.388Z,40.20
2019-06-01T17:33:50.987Z,42.70
2019-06-01T17:36:18.858Z,41.50
2019-06-01T17:38:47.050Z,41.80
2019-06-01T17:41:14.641Z,43.00
2019-06-01T17:43:42.460Z,43.40
2019-06-01T17:46:12.049Z,42.60
2019-06-01T17:48:39.998Z,42.70
2019-06-01T17:51:08.621Z,43.20
2019-06-01T17:53:36.186Z,43.20
2019-06-01T17:56:04.055Z,43.00
2019-06-01T17:58:31.741Z,42.80
2019-06-01T18:00:59.415Z,42.90
2019-06-01T18:03:27.062Z,42.70
2019-06-01T18:05:54.686Z,42.60
2019-06-01T18:08:22.298Z,43.20
2019-06-01T18:10:54.533Z,43.70
2019-06-01T18:13:19.223Z,44.00
2019-06-01T18:15:50.015Z,45.00
2019-06-01T18:18:16.572Z,44.70
2019-06-01T18:20:44.075Z,45.10
2019-06-01T18:23:13.219Z,45.00
2019-06-01T18:25:41.115Z,45.00
2019-06-01T18:28:15.117Z,45.90
2019-06-01T18:30:38.733Z,45.60
2019-06-01T18:33:07.094Z,46.10
2019-06-01T18:35:35.130Z,46.40
2019-06-01T18:38:03.656Z,46.40
2019-06-01T18:40:31.463Z,46.60
2019-06-01T18:43:01.859Z,46.90
2019-06-01T18:45:29.471Z,47.60
2019-06-01T18:47:57.535Z,47.30
2019-06-01T18:50:25.399Z,47.40
2019-06-01T18:52:53.464Z,47.60
2019-06-01T18:55:21.548Z,47.40
2019-06-01T18:57:52.931Z,47.60
2019-06-01T19:00:20.535Z,47.80
2019-06-01T19:02:48.154Z,48.20
2019-06-01T19:05:16.396Z,48.70
2019-06-01T19:07:44.041Z,48.80
2019-06-01T19:10:14.157Z,48.70
2019-06-01T19:12:42.143Z,48.90
2019-06-01T19:15:25.082Z,49.40
2019-06-01T19:17:40.752Z,49.60
2019-06-01T19:20:11.123Z,49.90
2019-06-01T19:22:39.133Z,50.30
2019-06-01T19:25:08.625Z,49.90
2019-06-01T19:27:36.763Z,49.60
2019-06-01T19:30:06.833Z,50.00
2019-06-01T19:32:34.700Z,50.70
2019-06-01T19:35:02.275Z,50.30
2019-06-01T19:37:33.055Z,50.00
2019-06-01T19:40:01.923Z,50.50
2019-06-01T19:42:29.904Z,51.20
2019-06-01T19:44:57.529Z,51.40
2019-06-01T19:47:25.785Z,52.00
2019-06-01T19:49:53.669Z,51.10
2019-06-01T19:52:21.315Z,51.30
2019-06-01T19:54:48.959Z,51.80
2019-06-01T19:57:20.326Z,51.70
2019-06-01T19:59:46.348Z,51.30
2019-06-01T20:02:28.345Z,50.90
2019-06-01T20:04:43.896Z,51.00
2019-06-01T20:07:12.987Z,51.50
2019-06-01T20:09:40.682Z,52.10
2019-06-01T20:12:12.892Z,52.30
2019-06-01T20:14:37.869Z,51.90
2019-06-01T20:17:05.832Z,51.40
2019-06-01T20:19:33.606Z,51.70
2019-06-01T20:22:01.598Z,51.60
2019-06-01T20:24:29.423Z,51.50
2019-06-01T20:26:57.270Z,51.10
2019-06-01T20:29:24.804Z,51.80
2019-06-01T20:31:52.390Z,51.20
2019-06-01T20:34:22.091Z,51.60
2019-06-01T20:36:49.773Z,52.10
2019-06-01T20:39:18.259Z,52.50
2019-06-01T20:41:45.994Z,52.50
2019-06-01T20:44:14.681Z,52.90
2019-06-01T20:46:42.493Z,53.20
2019-06-01T20:49:10.343Z,52.80
2019-06-01T20:51:37.854Z,52.90
2019-06-01T20:54:05.662Z,52.70
2019-06-01T20:56:33.132Z,53.00
2019-06-01T20:59:00.992Z,53.50
2019-06-01T21:01:28.858Z,53.90
2019-06-01T21:03:57.046Z,53.90
2019-06-01T21:06:24.597Z,54.20
2019-06-01T21:08:52.077Z,54.50
2019-06-01T21:11:20.111Z,54.50
2019-06-01T21:13:47.726Z,54.40
2019-06-01T21:16:16.110Z,54.30
2019-06-01T21:18:43.845Z,54.30
2019-06-01T21:21:11.726Z,54.60
2019-06-01T21:23:40.003Z,53.90
2019-06-01T21:26:07.516Z,53.90
2019-06-01T21:28:35.387Z,54.20
2019-06-01T21:31:02.974Z,54.00
2019-06-01T21:33:30.930Z,53.90
2019-06-01T21:35:58.626Z,54.40
2019-06-01T21:38:26.731Z,54.50
2019-06-01T21:40:54.699Z,54.40
2019-06-01T21:43:31.942Z,54.20
2019-06-01T21:45:51.920Z,54.90
2019-06-01T21:48:19.791Z,55.10
2019-06-01T21:50:47.757Z,55.20
2019-06-01T21:53:15.920Z,55.40
2019-06-01T21:55:43.633Z,55.50
2019-06-01T21:58:11.523Z,55.60
2019-06-01T22:00:39.635Z,55.70
2019-06-01T22:03:09.501Z,56.00
2019-06-01T22:05:37.387Z,56.00
2019-06-01T22:08:04.945Z,55.90
2019-06-01T22:10:32.472Z,56.30
2019-06-01T22:12:59.981Z,56.40
2019-06-01T22:15:28.201Z,56.70
2019-06-01T22:17:56.056Z,57.10
2019-06-01T22:20:24.059Z,56.60
2019-06-01T22:22:52.065Z,57.10
2019-06-01T22:25:20.548Z,56.50
2019-06-01T22:27:49.694Z,57.00
2019-06-01T22:30:18.346Z,56.90
2019-06-01T22:32:46.742Z,57.10
2019-06-01T22:35:14.251Z,56.60
2019-06-01T22:37:42.997Z,56.80
2019-06-01T22:40:10.766Z,57.00
2019-06-01T22:42:38.628Z,56.90
2019-06-01T22:45:06.478Z,57.20
2019-06-01T22:47:34.103Z,56.80
2019-06-01T22:50:02.199Z,57.30
2019-06-01T22:52:31.260Z,57.20
2019-06-01T22:54:58.759Z,57.40
2019-06-01T22:57:26.583Z,57.80
2019-06-01T22:59:54.594Z,57.10
2019-06-01T23:02:23.496Z,58.00
2019-06-01T23:04:52.242Z,57.90
2019-06-01T23:07:20.913Z,58.30
2019-06-01T23:09:48.643Z,58.50
2019-06-01T23:12:16.413Z,58.40
2019-06-01T23:14:45.534Z,58.90
2019-06-01T23:17:13.025Z,58.90
2019-06-01T23:19:40.986Z,58.90
2019-06-01T23:22:08.686Z,58.90
2019-06-01T23:24:36.369Z,59.10
2019-06-01T23:27:04.268Z,59.40
2019-06-01T23:29:32.444Z,59.50
2019-06-01T23:32:00.406Z,59.10
2019-06-01T23:34:28.694Z,59.30
2019-06-01T23:36:56.401Z,60.00
2019-06-01T23:39:24.797Z,59.60
2019-06-01T23:41:52.181Z,60.10
2019-06-01T23:44:20.026Z,59.80
2019-06-01T23:46:47.595Z,59.70
2019-06-01T23:49:16.040Z,59.00
2019-06-01T23:51:43.954Z,59.30
2019-06-01T23:54:12.005Z,58.90
2019-06-01T23:56:39.868Z,59.80
2019-06-01T23:59:07.385Z,59.40
